sensor_id;sensor_type;location;lat;lon;timestamp;pressure;altitude;pressure_sealevel;temperature;humidity
27840;BME280;15207;42.182;24.308;2023-04-24T00:00:16;99089.88;;;7.94;96.09
27840;BME280;15207;42.182;24.308;2023-04-24T00:02:43;99106.28;;;8.01;96.36
27840;BME280;15207;42.182;24.308;2023-04-24T00:05:14;99106.56;;;8.09;96.59
27840;BME280;15207;42.182;24.308;2023-04-24T00:07:40;99108.16;;;8.12;95.54
27840;BME280;15207;42.182;24.308;2023-04-24T00:10:06;99102.88;;;8.23;95.58
27840;BME280;15207;42.182;24.308;2023-04-24T00:12:32;99107.50;;;8.21;94.73
27840;BME280;15207;42.182;24.308;2023-04-24T00:14:58;99112.94;;;8.19;93.69
27840;BME280;15207;42.182;24.308;2023-04-24T00:17:23;99103.97;;;8.33;93.06
27840;BME280;15207;42.182;24.308;2023-04-24T00:19:49;99115.47;;;8.34;92.56
27840;BME280;15207;42.182;24.308;2023-04-24T00:22:24;99110.31;;;8.44;92.62
27840;BME280;15207;42.182;24.308;2023-04-24T00:24:50;99119.13;;;8.57;92.04
27840;BME280;15207;42.182;24.308;2023-04-24T00:27:15;99114.88;;;8.55;91.72
27840;BME280;15207;42.182;24.308;2023-04-24T00:29:41;99117.34;;;8.45;91.13
27840;BME280;15207;42.182;24.308;2023-04-24T00:32:06;99117.69;;;8.40;91.13
27840;BME280;15207;42.182;24.308;2023-04-24T00:34:32;99124.34;;;8.34;91.55
27840;BME280;15207;42.182;24.308;2023-04-24T00:36:58;99128.75;;;8.23;93.34
27840;BME280;15207;42.182;24.308;2023-04-24T00:39:23;99125.97;;;8.24;93.43
27840;BME280;15207;42.182;24.308;2023-04-24T00:41:49;99130.44;;;8.24;93.52
27840;BME280;15207;42.182;24.308;2023-04-24T00:44:16;99117.56;;;8.17;93.41
27840;BME280;15207;42.182;24.308;2023-04-24T00:46:42;99121.59;;;8.10;92.09
27840;BME280;15207;42.182;24.308;2023-04-24T00:49:07;99127.50;;;8.02;91.72
27840;BME280;15207;42.182;24.308;2023-04-24T00:51:33;99122.47;;;8.11;92.08
27840;BME280;15207;42.182;24.308;2023-04-24T00:54:00;99119.94;;;7.96;93.20
27840;BME280;15207;42.182;24.308;2023-04-24T00:56:26;99119.06;;;7.96;92.82
27840;BME280;15207;42.182;24.308;2023-04-24T00:58:52;99118.66;;;8.02;93.53
27840;BME280;15207;42.182;24.308;2023-04-24T01:01:21;99113.25;;;8.28;92.38
27840;BME280;15207;42.182;24.308;2023-04-24T01:03:49;99113.69;;;8.22;91.07
27840;BME280;15207;42.182;24.308;2023-04-24T01:06:16;99109.81;;;8.26;89.91
27840;BME280;15207;42.182;24.308;2023-04-24T01:08:43;99108.94;;;8.38;89.44
27840;BME280;15207;42.182;24.308;2023-04-24T01:11:11;99109.41;;;8.32;90.79
27840;BME280;15207;42.182;24.308;2023-04-24T01:13:36;99104.47;;;8.26;90.70
27840;BME280;15207;42.182;24.308;2023-04-24T01:16:02;99101.25;;;7.96;90.88
27840;BME280;15207;42.182;24.308;2023-04-24T01:18:28;99094.81;;;8.12;90.59
27840;BME280;15207;42.182;24.308;2023-04-24T01:20:59;99094.53;;;8.03;91.63
27840;BME280;15207;42.182;24.308;2023-04-24T01:23:28;99089.84;;;8.07;90.71
27840;BME280;15207;42.182;24.308;2023-04-24T01:25:54;99089.41;;;8.00;91.13
27840;BME280;15207;42.182;24.308;2023-04-24T01:28:20;99085.69;;;8.03;91.25
27840;BME280;15207;42.182;24.308;2023-04-24T01:30:46;99076.28;;;7.97;91.82
27840;BME280;15207;42.182;24.308;2023-04-24T01:33:12;99080.44;;;8.01;91.84
27840;BME280;15207;42.182;24.308;2023-04-24T01:35:38;99076.94;;;7.88;91.81
27840;BME280;15207;42.182;24.308;2023-04-24T01:38:04;99085.72;;;7.90;92.06
27840;BME280;15207;42.182;24.308;2023-04-24T01:40:31;99076.63;;;7.92;92.04
27840;BME280;15207;42.182;24.308;2023-04-24T01:42:57;99077.25;;;7.96;92.27
27840;BME280;15207;42.182;24.308;2023-04-24T01:45:23;99079.50;;;7.89;91.95
27840;BME280;15207;42.182;24.308;2023-04-24T01:47:49;99079.06;;;7.96;91.42
27840;BME280;15207;42.182;24.308;2023-04-24T01:50:15;99078.56;;;7.77;91.29
27840;BME280;15207;42.182;24.308;2023-04-24T01:52:41;99075.69;;;7.80;91.54
27840;BME280;15207;42.182;24.308;2023-04-24T01:55:07;99074.75;;;7.68;92.18
27840;BME280;15207;42.182;24.308;2023-04-24T01:57:33;99076.88;;;7.76;92.69
27840;BME280;15207;42.182;24.308;2023-04-24T01:59:59;99067.03;;;7.90;92.10
27840;BME280;15207;42.182;24.308;2023-04-24T02:02:25;99055.53;;;7.76;92.67
27840;BME280;15207;42.182;24.308;2023-04-24T02:04:55;99063.75;;;7.86;93.31
27840;BME280;15207;42.182;24.308;2023-04-24T02:07:21;99071.31;;;7.92;93.59
27840;BME280;15207;42.182;24.308;2023-04-24T02:09:47;99066.44;;;8.11;93.51
27840;BME280;15207;42.182;24.308;2023-04-24T02:12:12;99068.72;;;8.04;92.87
27840;BME280;15207;42.182;24.308;2023-04-24T02:14:38;99060.94;;;8.01;93.68
27840;BME280;15207;42.182;24.308;2023-04-24T02:17:04;99048.06;;;7.81;94.55
27840;BME280;15207;42.182;24.308;2023-04-24T02:19:30;99053.28;;;7.83;95.89
27840;BME280;15207;42.182;24.308;2023-04-24T02:21:55;99049.25;;;7.77;96.57
27840;BME280;15207;42.182;24.308;2023-04-24T02:24:21;99041.38;;;7.63;97.87
27840;BME280;15207;42.182;24.308;2023-04-24T02:26:46;99042.66;;;7.70;97.99
27840;BME280;15207;42.182;24.308;2023-04-24T02:29:12;99048.63;;;7.74;98.07
27840;BME280;15207;42.182;24.308;2023-04-24T02:31:37;99047.66;;;7.75;98.49
27840;BME280;15207;42.182;24.308;2023-04-24T02:34:03;99042.66;;;7.70;98.41
27840;BME280;15207;42.182;24.308;2023-04-24T02:36:28;99037.41;;;7.81;98.07
27840;BME280;15207;42.182;24.308;2023-04-24T02:38:54;99029.31;;;7.83;96.93
27840;BME280;15207;42.182;24.308;2023-04-24T02:41:20;99036.97;;;7.75;97.30
27840;BME280;15207;42.182;24.308;2023-04-24T02:43:45;99035.72;;;7.80;97.32
27840;BME280;15207;42.182;24.308;2023-04-24T02:46:11;99037.59;;;7.91;96.79
27840;BME280;15207;42.182;24.308;2023-04-24T02:48:36;99042.06;;;7.91;96.77
27840;BME280;15207;42.182;24.308;2023-04-24T02:51:02;99049.00;;;7.93;96.09
27840;BME280;15207;42.182;24.308;2023-04-24T02:53:27;99050.28;;;8.01;95.95
27840;BME280;15207;42.182;24.308;2023-04-24T02:55:55;99063.69;;;8.12;95.58
27840;BME280;15207;42.182;24.308;2023-04-24T02:58:20;99052.94;;;8.01;95.39
27840;BME280;15207;42.182;24.308;2023-04-24T03:00:46;99034.03;;;8.04;95.50
27840;BME280;15207;42.182;24.308;2023-04-24T03:03:12;99048.91;;;8.19;95.14
27840;BME280;15207;42.182;24.308;2023-04-24T03:05:38;99058.41;;;8.24;95.26
27840;BME280;15207;42.182;24.308;2023-04-24T03:08:03;99050.28;;;8.25;95.72
27840;BME280;15207;42.182;24.308;2023-04-24T03:10:30;99048.75;;;8.34;95.68
27840;BME280;15207;42.182;24.308;2023-04-24T03:12:55;99052.69;;;8.41;94.90
27840;BME280;15207;42.182;24.308;2023-04-24T03:15:21;99055.47;;;8.40;94.47
27840;BME280;15207;42.182;24.308;2023-04-24T03:17:46;99064.94;;;8.44;94.33
27840;BME280;15207;42.182;24.308;2023-04-24T03:20:12;99068.84;;;8.51;94.45
27840;BME280;15207;42.182;24.308;2023-04-24T03:22:37;99066.25;;;8.63;94.16
27840;BME280;15207;42.182;24.308;2023-04-24T03:25:04;99067.28;;;8.49;94.26
27840;BME280;15207;42.182;24.308;2023-04-24T03:27:30;99075.25;;;8.62;94.53
27840;BME280;15207;42.182;24.308;2023-04-24T03:29:55;99086.59;;;8.77;94.10
27840;BME280;15207;42.182;24.308;2023-04-24T03:32:22;99082.34;;;8.74;93.34
27840;BME280;15207;42.182;24.308;2023-04-24T03:34:48;99084.03;;;8.75;93.51
27840;BME280;15207;42.182;24.308;2023-04-24T03:37:14;99082.94;;;8.66;94.29
27840;BME280;15207;42.182;24.308;2023-04-24T03:39:40;99079.97;;;8.58;94.45
27840;BME280;15207;42.182;24.308;2023-04-24T03:42:05;99084.88;;;8.51;95.31
27840;BME280;15207;42.182;24.308;2023-04-24T03:44:31;99082.28;;;8.63;95.53
27840;BME280;15207;42.182;24.308;2023-04-24T03:46:58;99091.19;;;8.75;94.64
27840;BME280;15207;42.182;24.308;2023-04-24T03:49:23;99086.25;;;8.81;94.17
27840;BME280;15207;42.182;24.308;2023-04-24T03:51:49;99088.44;;;8.88;93.03
27840;BME280;15207;42.182;24.308;2023-04-24T03:54:14;99085.78;;;8.88;91.87
27840;BME280;15207;42.182;24.308;2023-04-24T03:56:40;99092.44;;;8.82;92.11
27840;BME280;15207;42.182;24.308;2023-04-24T03:59:05;99077.16;;;8.84;92.46
27840;BME280;15207;42.182;24.308;2023-04-24T04:01:30;99076.56;;;8.92;92.06
27840;BME280;15207;42.182;24.308;2023-04-24T04:03:56;99079.25;;;8.92;92.20
27840;BME280;15207;42.182;24.308;2023-04-24T04:06:21;99075.84;;;8.90;91.89
27840;BME280;15207;42.182;24.308;2023-04-24T04:08:47;99076.00;;;8.99;92.00
27840;BME280;15207;42.182;24.308;2023-04-24T04:11:13;99065.97;;;9.26;91.79
27840;BME280;15207;42.182;24.308;2023-04-24T04:13:39;99057.56;;;9.19;92.21
27840;BME280;15207;42.182;24.308;2023-04-24T04:16:04;99074.22;;;9.23;92.28
27840;BME280;15207;42.182;24.308;2023-04-24T04:18:30;99067.34;;;9.43;91.73
27840;BME280;15207;42.182;24.308;2023-04-24T04:20:55;99065.25;;;9.35;91.59
27840;BME280;15207;42.182;24.308;2023-04-24T04:23:22;99065.50;;;9.44;91.88
27840;BME280;15207;42.182;24.308;2023-04-24T04:25:48;99069.91;;;9.45;90.17
27840;BME280;15207;42.182;24.308;2023-04-24T04:28:15;99069.53;;;9.49;90.10
27840;BME280;15207;42.182;24.308;2023-04-24T04:30:40;99069.06;;;9.67;89.17
27840;BME280;15207;42.182;24.308;2023-04-24T04:33:06;99072.81;;;9.76;88.00
27840;BME280;15207;42.182;24.308;2023-04-24T04:35:33;99060.75;;;10.04;87.15
27840;BME280;15207;42.182;24.308;2023-04-24T04:37:58;99048.25;;;10.05;87.50
27840;BME280;15207;42.182;24.308;2023-04-24T04:40:24;99058.53;;;10.21;87.60
27840;BME280;15207;42.182;24.308;2023-04-24T04:42:50;99060.69;;;10.39;89.41
27840;BME280;15207;42.182;24.308;2023-04-24T04:45:18;99059.56;;;10.53;87.84
27840;BME280;15207;42.182;24.308;2023-04-24T04:47:43;99054.84;;;10.45;85.53
27840;BME280;15207;42.182;24.308;2023-04-24T04:50:09;99046.44;;;10.38;85.98
27840;BME280;15207;42.182;24.308;2023-04-24T04:52:35;99049.84;;;10.40;85.43
27840;BME280;15207;42.182;24.308;2023-04-24T04:55:01;99062.22;;;10.64;85.16
27840;BME280;15207;42.182;24.308;2023-04-24T04:57:27;99061.22;;;10.98;83.07
27840;BME280;15207;42.182;24.308;2023-04-24T04:59:52;99051.00;;;11.13;81.68
27840;BME280;15207;42.182;24.308;2023-04-24T05:02:18;99053.88;;;11.43;80.88
27840;BME280;15207;42.182;24.308;2023-04-24T05:04:43;99069.28;;;11.50;78.66
27840;BME280;15207;42.182;24.308;2023-04-24T05:07:10;99069.44;;;11.59;80.19
27840;BME280;15207;42.182;24.308;2023-04-24T05:09:35;99073.88;;;11.70;79.35
27840;BME280;15207;42.182;24.308;2023-04-24T05:12:01;99070.66;;;11.76;78.50
27840;BME280;15207;42.182;24.308;2023-04-24T05:14:27;99070.59;;;11.97;78.46
27840;BME280;15207;42.182;24.308;2023-04-24T05:16:53;99082.56;;;12.14;77.49
27840;BME280;15207;42.182;24.308;2023-04-24T05:19:18;99080.03;;;12.23;76.19
27840;BME280;15207;42.182;24.308;2023-04-24T05:21:44;99074.47;;;12.04;77.05
27840;BME280;15207;42.182;24.308;2023-04-24T05:24:09;99071.56;;;12.27;77.38
27840;BME280;15207;42.182;24.308;2023-04-24T05:26:35;99065.94;;;11.99;75.83
27840;BME280;15207;42.182;24.308;2023-04-24T05:29:02;99066.78;;;11.90;77.42
27840;BME280;15207;42.182;24.308;2023-04-24T05:31:28;99063.34;;;11.78;78.39
27840;BME280;15207;42.182;24.308;2023-04-24T05:33:53;99069.38;;;11.70;78.93
27840;BME280;15207;42.182;24.308;2023-04-24T05:36:19;99071.19;;;11.70;79.12
27840;BME280;15207;42.182;24.308;2023-04-24T05:38:44;99071.88;;;11.62;78.47
27840;BME280;15207;42.182;24.308;2023-04-24T05:41:10;99073.47;;;11.74;78.80
27840;BME280;15207;42.182;24.308;2023-04-24T05:43:36;99076.97;;;11.65;79.11
27840;BME280;15207;42.182;24.308;2023-04-24T05:46:01;99074.34;;;11.75;79.88
27840;BME280;15207;42.182;24.308;2023-04-24T05:48:27;99072.22;;;12.10;79.36
27840;BME280;15207;42.182;24.308;2023-04-24T05:50:52;99071.13;;;12.32;78.31
27840;BME280;15207;42.182;24.308;2023-04-24T05:53:18;99068.91;;;12.57;76.75
27840;BME280;15207;42.182;24.308;2023-04-24T05:55:44;99072.03;;;12.82;74.73
27840;BME280;15207;42.182;24.308;2023-04-24T05:58:11;99064.41;;;12.77;74.06
27840;BME280;15207;42.182;24.308;2023-04-24T06:00:36;99067.94;;;12.88;74.19
27840;BME280;15207;42.182;24.308;2023-04-24T06:03:03;99071.16;;;13.21;73.81
27840;BME280;15207;42.182;24.308;2023-04-24T06:05:29;99063.31;;;13.47;71.90
27840;BME280;15207;42.182;24.308;2023-04-24T06:07:55;99065.06;;;13.86;70.55
27840;BME280;15207;42.182;24.308;2023-04-24T06:10:21;99067.06;;;14.02;67.60
27840;BME280;15207;42.182;24.308;2023-04-24T06:12:46;99065.69;;;14.26;65.74
27840;BME280;15207;42.182;24.308;2023-04-24T06:15:12;99061.78;;;14.57;64.44
27840;BME280;15207;42.182;24.308;2023-04-24T06:17:38;99068.34;;;14.73;62.15
27840;BME280;15207;42.182;24.308;2023-04-24T06:20:04;99063.88;;;14.63;62.17
27840;BME280;15207;42.182;24.308;2023-04-24T06:22:31;99072.22;;;14.88;62.40
27840;BME280;15207;42.182;24.308;2023-04-24T06:24:57;99061.41;;;15.06;60.62
27840;BME280;15207;42.182;24.308;2023-04-24T06:27:22;99068.34;;;14.91;59.81
27840;BME280;15207;42.182;24.308;2023-04-24T06:29:48;99069.59;;;14.97;60.90
27840;BME280;15207;42.182;24.308;2023-04-24T06:32:21;99052.66;;;14.86;60.59
27840;BME280;15207;42.182;24.308;2023-04-24T06:34:47;99061.50;;;14.97;61.36
27840;BME280;15207;42.182;24.308;2023-04-24T06:37:12;99054.16;;;14.71;60.71
27840;BME280;15207;42.182;24.308;2023-04-24T06:39:38;99057.88;;;14.88;61.01
27840;BME280;15207;42.182;24.308;2023-04-24T06:42:03;99055.94;;;15.16;58.39
27840;BME280;15207;42.182;24.308;2023-04-24T06:44:29;99058.25;;;15.38;57.38
27840;BME280;15207;42.182;24.308;2023-04-24T06:46:54;99063.72;;;15.01;59.88
27840;BME280;15207;42.182;24.308;2023-04-24T06:49:20;99053.31;;;15.06;60.54
27840;BME280;15207;42.182;24.308;2023-04-24T06:51:46;99067.84;;;15.32;59.67
27840;BME280;15207;42.182;24.308;2023-04-24T06:54:11;99062.97;;;15.36;58.89
27840;BME280;15207;42.182;24.308;2023-04-24T06:56:37;99062.75;;;15.29;59.44
27840;BME280;15207;42.182;24.308;2023-04-24T06:59:02;99061.00;;;15.46;60.48
27840;BME280;15207;42.182;24.308;2023-04-24T07:01:28;99061.81;;;15.73;60.73
27840;BME280;15207;42.182;24.308;2023-04-24T07:03:53;99063.53;;;15.74;58.63
27840;BME280;15207;42.182;24.308;2023-04-24T07:06:19;99060.13;;;15.72;59.22
27840;BME280;15207;42.182;24.308;2023-04-24T07:08:47;99068.56;;;15.42;59.64
27840;BME280;15207;42.182;24.308;2023-04-24T07:11:13;99066.97;;;15.31;59.66
27840;BME280;15207;42.182;24.308;2023-04-24T07:13:39;99067.41;;;15.45;59.31
27840;BME280;15207;42.182;24.308;2023-04-24T07:16:07;99072.59;;;15.38;60.07
27840;BME280;15207;42.182;24.308;2023-04-24T07:18:33;99075.19;;;15.48;60.82
27840;BME280;15207;42.182;24.308;2023-04-24T07:20:59;99054.50;;;15.57;60.21
27840;BME280;15207;42.182;24.308;2023-04-24T07:23:24;99052.97;;;15.28;59.84
27840;BME280;15207;42.182;24.308;2023-04-24T07:25:50;99057.09;;;15.40;60.30
27840;BME280;15207;42.182;24.308;2023-04-24T07:28:15;99059.97;;;15.20;60.28
27840;BME280;15207;42.182;24.308;2023-04-24T07:30:43;99049.56;;;14.99;61.78
27840;BME280;15207;42.182;24.308;2023-04-24T07:33:08;99052.53;;;15.14;61.30
27840;BME280;15207;42.182;24.308;2023-04-24T07:35:36;99054.34;;;15.32;60.41
27840;BME280;15207;42.182;24.308;2023-04-24T07:38:01;99043.28;;;15.43;59.25
27840;BME280;15207;42.182;24.308;2023-04-24T07:40:27;99043.72;;;15.57;58.58
27840;BME280;15207;42.182;24.308;2023-04-24T07:42:53;99042.19;;;15.63;58.74
27840;BME280;15207;42.182;24.308;2023-04-24T07:45:18;99046.28;;;15.93;57.94
27840;BME280;15207;42.182;24.308;2023-04-24T07:47:44;99040.25;;;16.16;57.10
27840;BME280;15207;42.182;24.308;2023-04-24T07:50:11;99044.66;;;16.25;55.38
27840;BME280;15207;42.182;24.308;2023-04-24T07:52:38;99050.69;;;16.11;56.47
27840;BME280;15207;42.182;24.308;2023-04-24T07:55:04;99041.38;;;16.57;55.83
27840;BME280;15207;42.182;24.308;2023-04-24T07:57:30;99042.41;;;16.72;55.33
27840;BME280;15207;42.182;24.308;2023-04-24T07:59:55;99051.16;;;16.49;53.88
27840;BME280;15207;42.182;24.308;2023-04-24T08:02:21;99042.91;;;16.59;54.50
27840;BME280;15207;42.182;24.308;2023-04-24T08:04:54;99048.28;;;16.51;53.23
27840;BME280;15207;42.182;24.308;2023-04-24T08:07:20;99042.03;;;16.42;55.13
27840;BME280;15207;42.182;24.308;2023-04-24T08:09:46;99034.34;;;16.04;55.44
27840;BME280;15207;42.182;24.308;2023-04-24T08:12:12;99039.53;;;16.06;55.90
27840;BME280;15207;42.182;24.308;2023-04-24T08:14:38;99039.41;;;15.81;56.48
27840;BME280;15207;42.182;24.308;2023-04-24T08:17:03;99039.13;;;15.57;57.05
27840;BME280;15207;42.182;24.308;2023-04-24T08:19:29;99039.56;;;15.71;58.58
27840;BME280;15207;42.182;24.308;2023-04-24T08:21:55;99039.03;;;16.02;57.26
27840;BME280;15207;42.182;24.308;2023-04-24T08:24:22;99036.69;;;15.99;56.93
27840;BME280;15207;42.182;24.308;2023-04-24T08:26:48;99030.81;;;16.20;58.39
27840;BME280;15207;42.182;24.308;2023-04-24T08:29:17;99033.38;;;16.38;55.48
27840;BME280;15207;42.182;24.308;2023-04-24T08:31:42;99026.31;;;16.46;55.62
27840;BME280;15207;42.182;24.308;2023-04-24T08:34:09;99030.75;;;16.80;55.03
27840;BME280;15207;42.182;24.308;2023-04-24T08:36:35;99024.66;;;16.95;52.90
27840;BME280;15207;42.182;24.308;2023-04-24T08:39:00;99017.06;;;17.23;53.46
27840;BME280;15207;42.182;24.308;2023-04-24T08:41:27;99009.28;;;16.87;52.55
27840;BME280;15207;42.182;24.308;2023-04-24T08:43:52;99002.03;;;16.71;54.07
27840;BME280;15207;42.182;24.308;2023-04-24T08:46:19;98997.78;;;16.93;53.66
27840;BME280;15207;42.182;24.308;2023-04-24T08:48:45;99004.88;;;17.19;52.95
27840;BME280;15207;42.182;24.308;2023-04-24T08:51:11;98990.16;;;17.13;52.60
27840;BME280;15207;42.182;24.308;2023-04-24T08:53:37;98996.28;;;17.07;52.96
27840;BME280;15207;42.182;24.308;2023-04-24T08:56:03;98992.56;;;17.00;50.94
27840;BME280;15207;42.182;24.308;2023-04-24T08:58:30;98983.25;;;17.11;51.27
27840;BME280;15207;42.182;24.308;2023-04-24T09:00:56;98981.91;;;16.98;51.72
27840;BME280;15207;42.182;24.308;2023-04-24T09:03:22;98990.38;;;17.03;50.81
27840;BME280;15207;42.182;24.308;2023-04-24T09:05:49;98985.94;;;16.44;51.77
27840;BME280;15207;42.182;24.308;2023-04-24T09:08:17;98981.91;;;16.48;51.89
27840;BME280;15207;42.182;24.308;2023-04-24T09:10:44;98988.66;;;16.69;51.93
27840;BME280;15207;42.182;24.308;2023-04-24T09:13:10;98972.97;;;16.56;51.88
27840;BME280;15207;42.182;24.308;2023-04-24T09:15:37;98975.47;;;17.16;51.49
27840;BME280;15207;42.182;24.308;2023-04-24T09:18:04;98971.22;;;17.78;49.74
27840;BME280;15207;42.182;24.308;2023-04-24T09:20:31;98962.34;;;17.93;48.22
27840;BME280;15207;42.182;24.308;2023-04-24T09:22:57;98965.94;;;17.85;47.97
27840;BME280;15207;42.182;24.308;2023-04-24T09:25:31;98957.31;;;17.41;49.01
27840;BME280;15207;42.182;24.308;2023-04-24T09:28:01;98959.84;;;17.35;49.33
27840;BME280;15207;42.182;24.308;2023-04-24T09:30:28;98962.72;;;17.33;49.59
27840;BME280;15207;42.182;24.308;2023-04-24T09:33:15;98966.34;;;17.09;49.17
27840;BME280;15207;42.182;24.308;2023-04-24T09:35:51;98947.19;;;17.27;48.20
27840;BME280;15207;42.182;24.308;2023-04-24T09:38:17;98945.06;;;17.94;47.28
27840;BME280;15207;42.182;24.308;2023-04-24T09:40:43;98936.38;;;17.98;47.00
27840;BME280;15207;42.182;24.308;2023-04-24T09:43:12;98939.09;;;17.67;49.84
27840;BME280;15207;42.182;24.308;2023-04-24T09:45:39;98928.88;;;17.45;50.00
27840;BME280;15207;42.182;24.308;2023-04-24T09:48:05;98925.88;;;17.24;51.65
27840;BME280;15207;42.182;24.308;2023-04-24T09:50:32;98922.13;;;17.41;51.40
27840;BME280;15207;42.182;24.308;2023-04-24T09:52:59;98920.06;;;18.15;50.74
27840;BME280;15207;42.182;24.308;2023-04-24T09:55:26;98913.44;;;18.95;49.57
27840;BME280;15207;42.182;24.308;2023-04-24T10:00:32;98911.25;;;19.43;47.65
27840;BME280;15207;42.182;24.308;2023-04-24T10:02:59;98910.13;;;19.08;48.96
27840;BME280;15207;42.182;24.308;2023-04-24T10:05:33;98905.72;;;19.37;48.80
27840;BME280;15207;42.182;24.308;2023-04-24T10:08:02;98907.31;;;19.16;48.75
27840;BME280;15207;42.182;24.308;2023-04-24T10:10:29;98910.34;;;18.83;47.27
27840;BME280;15207;42.182;24.308;2023-04-24T10:12:55;98897.47;;;18.61;48.22
27840;BME280;15207;42.182;24.308;2023-04-24T10:15:21;98906.13;;;18.80;47.07
27840;BME280;15207;42.182;24.308;2023-04-24T10:17:49;98895.28;;;18.80;48.02
27840;BME280;15207;42.182;24.308;2023-04-24T10:20:19;98899.28;;;19.23;46.87
27840;BME280;15207;42.182;24.308;2023-04-24T10:22:48;98889.25;;;19.08;46.97
27840;BME280;15207;42.182;24.308;2023-04-24T10:25:16;98889.31;;;19.00;47.54
27840;BME280;15207;42.182;24.308;2023-04-24T10:27:42;98891.53;;;18.81;48.24
27840;BME280;15207;42.182;24.308;2023-04-24T10:30:09;98886.56;;;18.85;48.22
27840;BME280;15207;42.182;24.308;2023-04-24T10:32:36;98880.38;;;19.14;48.18
27840;BME280;15207;42.182;24.308;2023-04-24T10:35:02;98873.81;;;19.24;47.77
27840;BME280;15207;42.182;24.308;2023-04-24T10:37:27;98872.81;;;19.62;46.39
27840;BME280;15207;42.182;24.308;2023-04-24T10:39:54;98864.00;;;19.60;45.60
27840;BME280;15207;42.182;24.308;2023-04-24T10:42:21;98866.63;;;19.90;45.99
27840;BME280;15207;42.182;24.308;2023-04-24T10:44:48;98865.72;;;20.19;45.54
27840;BME280;15207;42.182;24.308;2023-04-24T10:47:15;98852.63;;;20.08;45.85
27840;BME280;15207;42.182;24.308;2023-04-24T10:49:40;98856.91;;;19.80;45.89
27840;BME280;15207;42.182;24.308;2023-04-24T10:52:08;98860.13;;;19.69;47.11
27840;BME280;15207;42.182;24.308;2023-04-24T10:59:44;98858.28;;;19.91;45.94
27840;BME280;15207;42.182;24.308;2023-04-24T11:02:10;98848.72;;;19.22;46.81
27840;BME280;15207;42.182;24.308;2023-04-24T11:04:35;98861.41;;;19.51;47.71
27840;BME280;15207;42.182;24.308;2023-04-24T11:07:03;98853.47;;;19.72;46.42
27840;BME280;15207;42.182;24.308;2023-04-24T11:09:30;98846.75;;;19.31;47.35
27840;BME280;15207;42.182;24.308;2023-04-24T11:12:04;98828.31;;;19.41;47.80
27840;BME280;15207;42.182;24.308;2023-04-24T11:17:35;98821.03;;;19.26;48.37
27840;BME280;15207;42.182;24.308;2023-04-24T11:20:10;98814.41;;;19.73;47.54
27840;BME280;15207;42.182;24.308;2023-04-24T11:22:38;98809.13;;;19.86;46.97
27840;BME280;15207;42.182;24.308;2023-04-24T11:25:05;98811.84;;;20.08;45.70
27840;BME280;15207;42.182;24.308;2023-04-24T11:27:42;98795.94;;;19.83;46.66
27840;BME280;15207;42.182;24.308;2023-04-24T11:30:09;98805.44;;;19.72;47.73
27840;BME280;15207;42.182;24.308;2023-04-24T11:32:42;98802.91;;;19.92;47.23
27840;BME280;15207;42.182;24.308;2023-04-24T11:37:41;98792.00;;;20.65;45.70
27840;BME280;15207;42.182;24.308;2023-04-24T11:40:09;98784.34;;;21.17;44.42
27840;BME280;15207;42.182;24.308;2023-04-24T11:42:36;98787.16;;;20.88;44.10
27840;BME280;15207;42.182;24.308;2023-04-24T11:45:06;98771.00;;;20.87;45.04
27840;BME280;15207;42.182;24.308;2023-04-24T11:47:32;98772.59;;;20.74;45.14
27840;BME280;15207;42.182;24.308;2023-04-24T11:50:01;98774.63;;;20.59;46.34
27840;BME280;15207;42.182;24.308;2023-04-24T11:52:27;98775.44;;;20.59;46.75
27840;BME280;15207;42.182;24.308;2023-04-24T11:54:53;98770.28;;;21.07;45.23
27840;BME280;15207;42.182;24.308;2023-04-24T11:57:23;98769.69;;;20.41;45.77
27840;BME280;15207;42.182;24.308;2023-04-24T11:59:51;98761.94;;;20.09;46.60
27840;BME280;15207;42.182;24.308;2023-04-24T12:02:24;98754.34;;;20.33;46.82
27840;BME280;15207;42.182;24.308;2023-04-24T12:04:51;98760.84;;;20.67;45.72
27840;BME280;15207;42.182;24.308;2023-04-24T12:07:17;98758.56;;;21.13;44.35
27840;BME280;15207;42.182;24.308;2023-04-24T12:09:59;98739.97;;;21.23;43.65
27840;BME280;15207;42.182;24.308;2023-04-24T12:12:26;98734.94;;;21.20;43.82
27840;BME280;15207;42.182;24.308;2023-04-24T12:14:54;98715.66;;;21.15;44.40
27840;BME280;15207;42.182;24.308;2023-04-24T12:17:41;98709.44;;;21.42;44.02
27840;BME280;15207;42.182;24.308;2023-04-24T12:20:08;98709.53;;;20.99;44.62
27840;BME280;15207;42.182;24.308;2023-04-24T12:23:06;98705.41;;;21.17;43.57
27840;BME280;15207;42.182;24.308;2023-04-24T12:25:32;98687.72;;;20.86;44.59
27840;BME280;15207;42.182;24.308;2023-04-24T12:30:33;98681.72;;;20.62;45.06
27840;BME280;15207;42.182;24.308;2023-04-24T12:33:01;98687.91;;;20.42;45.04
27840;BME280;15207;42.182;24.308;2023-04-24T12:35:30;98687.47;;;20.39;45.95
27840;BME280;15207;42.182;24.308;2023-04-24T12:38:11;98691.47;;;20.43;46.56
27840;BME280;15207;42.182;24.308;2023-04-24T12:40:41;98699.41;;;20.38;46.44
27840;BME280;15207;42.182;24.308;2023-04-24T12:43:18;98692.72;;;20.40;46.62
27840;BME280;15207;42.182;24.308;2023-04-24T12:45:44;98696.97;;;20.98;45.07
27840;BME280;15207;42.182;24.308;2023-04-24T12:48:12;98700.63;;;21.33;44.60
27840;BME280;15207;42.182;24.308;2023-04-24T12:50:39;98687.88;;;21.40;44.31
27840;BME280;15207;42.182;24.308;2023-04-24T12:53:06;98684.63;;;21.03;44.33
27840;BME280;15207;42.182;24.308;2023-04-24T12:55:31;98678.31;;;20.88;44.62
27840;BME280;15207;42.182;24.308;2023-04-24T12:57:57;98659.88;;;20.91;44.58
27840;BME280;15207;42.182;24.308;2023-04-24T13:00:23;98619.50;;;20.87;44.81
27840;BME280;15207;42.182;24.308;2023-04-24T13:02:49;98595.38;;;20.78;49.19
27840;BME280;15207;42.182;24.308;2023-04-24T13:05:14;98605.56;;;20.48;49.54